Latest Weather Observations for Mortlake

IDV60801

Issued at 4:42 pm EST Monday 20 May 2024 (issued every 10 minutes, with the page automatically refreshed every 10 minutes)

About weather observations | Map of weather stations | Latest weather observations for VIC | Other Formats
Station Details ID: 090176 Name: MORTLAKE RACECOURSE Lat: -38.07 Lon: 142.77 Height: 130.0 m
Data from the previous 72 hours. | See also: Recent months at Mortlake
Date/Time
EST
Temp
°C
App
Temp
°C
Dew
Point
°C
Rel
Hum
%
Delta-T
°C
Wind Press
QNH
hPa
Press
MSL
hPa
Rain since
9am
mm
Dir  Spd
km/h
Gust
km/h
Spd
kts
Gust
kts
20/04:30pm 12.2 9.5 9.0 81 1.6 S 13 19 7 10 1029.3 1029.5 0.2
20/04:00pm 12.4 10.1 10.5 88 1.0 S 13 19 7 10 1029.0 1029.2 0.2
20/03:30pm 12.5 8.8 9.5 82 1.5 S 19 22 10 12 1028.9 1029.1 0.2
20/03:00pm 12.8 10.4 11.4 91 0.7 S 15 19 8 10 1028.7 1028.8 0.2
20/02:30pm 12.7 10.6 12.5 99 0.1 S 15 22 8 12 1028.5 1028.6 0.2
20/02:00pm 12.9 9.8 11.5 91 0.7 S 19 24 10 13 1028.6 1028.7 0.2
20/01:30pm 12.4 9.6 11.5 94 0.5 SSW 17 20 9 11 1028.6 1028.7 0.2
20/01:00pm 12.4 10.1 11.8 96 0.3 S 15 24 8 13 1028.9 1029.1 0.2
20/12:30pm 12.3 9.3 12.1 99 0.1 S 19 30 10 16 1029.0 1029.2 0.2
20/12:00pm 12.4 9.9 12.4 100 0.0 SSW 17 24 9 13 1029.4 1029.6 0.2
20/11:30am 12.3 10.2 12.3 100 0.0 SSE 15 20 8 11 1029.6 1029.8 0.0
20/11:00am 11.6 9.6 11.6 100 0.0 S 13 17 7 9 1029.7 1029.9 0.0
20/10:30am 12.2 10.4 12.2 100 0.0 S 13 20 7 11 1029.5 1029.7 0.0
20/10:00am 11.9 10.0 11.9 100 0.0 SSW 13 17 7 9 1029.3 1029.5 0.0
20/09:30am 10.7 8.9 10.7 100 0.0 SSW 11 15 6 8 1029.2 1029.4 0.0
20/09:00am 9.8 8.7 9.8 100 0.0 SW 6 9 3 5 1028.8 1029.0 3.8
20/08:30am 9.0 7.6 9.0 100 0.0 WSW 6 7 3 4 1028.6 1028.7 3.8
20/08:00am 7.6 5.9 7.6 100 0.0 SW 6 6 3 3 1028.3 1028.4 3.8
20/07:30am 7.7 6.0 7.7 100 0.0 SW 6 7 3 4 1028.1 1028.2 3.8
20/07:00am 8.1 6.5 8.1 100 0.0 SW 6 7 3 4 1027.7 1027.8 3.8
20/06:30am 8.3 7.2 8.3 100 0.0 SW 4 6 2 3 1027.4 1027.5 3.8
20/06:00am 7.8 6.2 7.8 100 0.0 WSW 6 9 3 5 1027.2 1027.3 3.8
20/05:30am 8.0 5.8 8.0 100 0.0 WSW 9 11 5 6 1026.9 1027.0 3.8
20/05:00am 8.6 7.5 8.6 100 0.0 SSW 4 6 2 3 1026.7 1026.8 3.6
20/04:30am 8.3 6.8 8.3 100 0.0 SSW 6 6 3 3 1026.5 1026.6 3.6
20/04:00am 7.5 6.9 7.5 100 0.0 CALM 0 2 0 1 1026.0 1026.1 3.6
20/03:30am 8.3 6.2 8.3 100 0.0 SSW 9 11 5 6 1026.1 1026.2 3.6
20/03:00am 9.3 7.1 9.3 100 0.0 SSW 11 13 6 7 1026.1 1026.2 3.6
20/02:30am 9.2 7.7 9.2 100 0.0 SW 7 20 4 11 1026.1 1026.2 3.6
20/02:00am 8.4 6.9 8.4 100 0.0 SW 6 6 3 3 1025.7 1025.8 3.6
20/01:30am 9.1 7.6 9.1 100 0.0 SW 7 9 4 5 1025.5 1025.6 3.6
20/01:00am 8.5 7.4 8.5 100 0.0 WSW 4 9 2 5 1025.6 1025.7 3.6
20/12:30am 8.2 7.4 8.2 100 0.0 WSW 2 2 1 1 1025.5 1025.6 3.6
20/12:00am 9.1 7.8 9.1 100 0.0 WSW 6 6 3 3 1025.4 1025.5 3.6
 
Date/Time
EST
Temp
°C
App
Temp
°C
Dew
Point
°C
Rel
Hum
%
Delta-T
°C
Wind Press
QNH
hPa
Press
MSL
hPa
Rain since
9am
mm
Dir  Spd
km/h
Gust
km/h
Spd
kts
Gust
kts
19/11:30pm 9.4 8.2 9.4 100 0.0 WSW 6 9 3 5 1025.4 1025.5 3.6
19/11:00pm 8.7 7.1 8.7 100 0.0 WSW 7 9 4 5 1025.5 1025.6 3.6
19/10:30pm 8.6 7.1 8.6 100 0.0 WSW 6 7 3 4 1025.5 1025.6 3.6
19/10:00pm 8.2 6.6 8.2 100 0.0 WSW 6 7 3 4 1025.5 1025.6 3.6
19/09:30pm 8.0 6.4 8.0 100 0.0 SW 6 7 3 4 1025.6 1025.7 3.6
19/09:00pm 8.3 6.6 8.3 100 0.0 SW 7 9 4 5 1025.7 1025.8 3.6
19/08:30pm 8.9 7.0 8.9 100 0.0 SW 9 13 5 7 1025.6 1025.7 3.6
19/08:00pm 10.2 7.8 10.2 100 0.0 SSW 13 15 7 8 1025.6 1025.7 3.6
19/07:30pm 10.4 8.9 10.4 100 0.0 WSW 9 13 5 7 1025.6 1025.7 3.2
19/07:00pm 10.4 8.9 10.4 100 0.0 WSW 9 11 5 6 1025.3 1025.4 3.2
19/06:30pm 10.8 9.7 10.8 100 0.0 WSW 7 9 4 5 1025.1 1025.2 3.2
19/06:00pm 11.0 8.9 11.0 100 0.0 SW 13 19 7 10 1024.8 1024.9 3.2
19/05:30pm 11.1 8.6 11.1 100 0.0 SW 15 17 8 9 1024.7 1024.8 3.2
19/05:00pm 11.3 8.1 11.3 100 0.0 SSW 19 28 10 15 1024.4 1024.5 3.2
19/04:30pm 12.3 10.6 12.3 100 0.0 WSW 13 20 7 11 1024.2 1024.3 3.0
19/04:00pm 12.0 8.8 12.0 100 0.0 SW 20 28 11 15 1024.1 1024.2 3.0
19/03:30pm 11.9 8.3 11.9 100 0.0 SW 22 33 12 18 1024.1 1024.2 2.6
19/03:00pm 13.3 9.8 13.3 100 0.0 SW 24 32 13 17 1023.9 1024.0 2.4
19/02:30pm 13.4 8.6 12.9 97 0.3 SW 30 43 16 23 1023.9 1024.0 2.4
19/02:00pm 13.6 10.9 13.6 100 0.0 SW 20 30 11 16 1024.0 1024.1 2.4
19/01:30pm 13.6 11.1 13.6 100 0.0 WSW 19 28 10 15 1024.1 1024.2 1.8
19/01:00pm 13.0 10.7 13.0 100 0.0 WSW 17 24 9 13 1024.4 1024.5 1.8
19/12:30pm 12.8 10.4 12.8 100 0.0 SW 17 26 9 14 1024.8 1024.9 1.4
19/12:00pm 12.9 10.0 12.9 100 0.0 W 20 30 11 16 1025.0 1025.1 0.0
19/11:30am 12.8 9.9 12.8 100 0.0 W 20 30 11 16 1025.1 1025.2 0.0
19/11:00am 12.0 8.8 12.0 100 0.0 W 20 30 11 16 1025.3 1025.4 0.0
19/10:30am 11.5 8.4 11.5 100 0.0 W 19 30 10 16 1025.5 1025.6 0.0
19/10:00am 10.8 7.5 10.8 100 0.0 WNW 19 26 10 14 1025.8 1025.9 0.0
19/09:30am 10.2 6.7 10.2 100 0.0 WNW 19 24 10 13 1025.9 1026.0 0.0
19/09:00am 9.6 6.3 9.6 100 0.0 WNW 17 24 9 13 1026.1 1026.2 0.0
19/08:30am 9.2 5.8 9.2 100 0.0 WNW 17 24 9 13 1026.2 1026.3 0.0
19/08:00am 8.6 5.1 8.6 100 0.0 NW 17 22 9 12 1026.1 1026.2 0.0
19/07:30am 8.0 5.1 8.0 100 0.0 NW 13 19 7 10 1025.8 1025.9 0.0
19/07:00am 8.0 5.1 8.0 100 0.0 NW 13 17 7 9 1025.8 1025.9 0.0
19/06:30am 8.4 5.2 8.4 100 0.0 WNW 15 20 8 11 1025.7 1025.8 0.0
19/06:00am 8.1 5.2 8.1 100 0.0 WNW 13 17 7 9 1025.7 1025.8 0.0
19/05:30am 7.4 4.7 7.4 100 0.0 WNW 11 17 6 9 1025.9 1026.0 0.0
19/05:00am 7.9 4.9 7.9 100 0.0 NW 13 17 7 9 1026.2 1026.3 0.0
19/04:30am 7.7 3.9 7.7 100 0.0 WNW 17 20 9 11 1026.1 1026.2 0.0
19/04:00am 7.8 4.8 7.8 100 0.0 WNW 13 19 7 10 1026.5 1026.6 0.0
19/03:30am 8.6 5.4 8.3 98 0.1 WNW 15 20 8 11 1026.8 1026.9 0.0
19/03:00am 8.9 5.5 7.8 93 0.5 WNW 15 20 8 11 1027.0 1027.1 0.0
19/02:30am 8.6 5.4 6.9 89 0.8 WNW 13 17 7 9 1027.2 1027.3 0.0
19/02:00am 8.3 5.9 6.9 91 0.7 NW 9 13 5 7 1027.5 1027.6 0.0
19/01:30am 8.1 5.2 6.7 91 0.7 WNW 11 13 6 7 1027.9 1028.0 0.0
19/01:00am 7.8 5.8 6.9 94 0.4 WNW 7 9 4 5 1028.5 1028.6 0.0
19/12:30am 7.6 5.5 6.7 94 0.4 WNW 7 11 4 6 1028.6 1028.7 0.0
19/12:00am 6.8 4.9 6.8 100 0.0 WNW 6 7 3 4 1028.8 1029.0 0.0
 
Date/Time
EST
Temp
°C
App
Temp
°C
Dew
Point
°C
Rel
Hum
%
Delta-T
°C
Wind Press
QNH
hPa
Press
MSL
hPa
Rain since
9am
mm
Dir  Spd
km/h
Gust
km/h
Spd
kts
Gust
kts
18/11:30pm 6.3 4.1 6.0 98 0.1 WNW 7 9 4 5 1029.3 1029.5 0.0
18/11:00pm 6.0 3.8 6.0 100 0.0 WNW 7 9 4 5 1029.7 1029.9 0.0
18/10:30pm 4.9 2.4 4.9 100 0.0 NNW 7 9 4 5 1030.3 1030.4 0.0
18/10:00pm 3.6 0.9 3.6 100 0.0 NW 7 9 4 5 1030.6 1030.7 0.0
18/09:30pm 3.0 0.4 3.0 100 0.0 W 6 9 3 5 1030.8 1030.9 0.0
18/09:00pm 3.5 1.0 3.5 100 0.0 W 6 7 3 4 1030.7 1030.8 0.0
18/08:30pm 5.2 2.5 2.9 85 1.0 W 6 7 3 4 1030.8 1030.9 0.0
18/08:00pm 6.6 4.2 4.1 84 1.1 WSW 6 7 3 4 1031.1 1031.2 0.0
18/07:30pm 6.3 3.9 4.3 87 0.9 SW 6 7 3 4 1031.6 1031.7 0.0
18/07:00pm 6.7 4.7 4.4 85 1.0 SW 4 4 2 2 1031.0 1031.1 0.0
18/06:30pm 6.6 4.2 5.1 90 0.7 SW 7 9 4 5 1031.3 1031.4 0.0
18/06:00pm 7.5 4.3 5.0 84 1.1 SW 11 13 6 7 1031.6 1031.7 0.0
18/05:30pm 8.5 5.6 4.7 77 1.7 SSW 9 11 5 6 1031.1 1031.2 0.0
18/05:00pm 10.1 6.8 4.7 69 2.4 SW 11 13 6 7 1031.3 1031.4 0.0
18/04:30pm 11.8 8.1 4.3 60 3.4 SW 13 19 7 10 1031.4 1031.5 0.0
18/04:00pm 13.0 9.5 3.4 52 4.3 SW 11 19 6 10 1031.8 1031.9 0.0
18/03:30pm 12.8 9.2 2.9 51 4.4 SSW 11 20 6 11 1032.0 1032.1 0.0
18/03:00pm 13.1 10.2 2.6 49 4.6 S 7 17 4 9 1032.1 1032.2 0.0
18/02:30pm 13.0 9.8 2.8 50 4.5 S 9 13 5 7 1032.2 1032.3 0.0
18/02:00pm 12.9 9.7 3.0 51 4.4 S 9 17 5 9 1032.7 1032.8 0.0
18/01:30pm 12.7 9.5 2.8 51 4.4 S 9 13 5 7 1033.0 1033.1 0.0
18/01:00pm 12.3 9.0 2.2 50 4.4 SSE 9 15 5 8 1033.2 1033.3 0.0
18/12:30pm 12.2 8.5 2.6 52 4.2 SE 11 17 6 9 1033.7 1033.8 0.0
18/12:00pm 12.2 8.6 3.2 54 4.0 SSE 11 19 6 10 1034.0 1034.1 0.0
18/11:30am 12.1 7.8 3.3 55 3.9 SE 15 20 8 11 1034.7 1034.8 0.0
18/11:00am 11.7 7.1 3.5 57 3.6 ESE 17 20 9 11 1034.7 1034.8 0.0
18/10:30am 11.4 7.6 3.9 60 3.4 SE 13 20 7 11 1034.8 1034.9 0.0
18/10:00am 10.8 7.1 4.5 65 2.8 SE 13 17 7 9 1034.7 1034.8 0.0
18/09:30am 9.0 7.6 5.4 78 1.6 SSE 2 4 1 2 1034.6 1034.7 0.0
18/09:00am 7.5 6.8 6.9 96 0.3 CALM 0 0 0 0 1034.6 1034.7 1.0
18/08:30am 5.8 4.8 5.8 100 0.0 CALM 0 2 0 1 1034.3 1034.4 1.0
18/08:00am 4.1 2.8 4.1 100 0.0 CALM 0 0 0 0 1034.2 1034.3 1.0
18/07:30am 3.7 2.3 3.7 100 0.0 CALM 0 0 0 0 1033.9 1034.0 1.0
18/07:00am 3.8 2.4 3.8 100 0.0 CALM 0 0 0 0 1033.6 1033.7 1.0
18/06:30am 4.5 2.5 4.5 100 0.0 S 4 6 2 3 1033.4 1033.5 1.0
18/06:00am 4.1 2.4 4.1 100 0.0 SSW 2 4 1 2 1033.2 1033.3 1.0
18/05:30am 4.9 2.4 4.9 100 0.0 SSW 7 7 4 4 1032.9 1033.0 1.0
18/05:00am 4.3 2.3 4.3 100 0.0 SSW 4 4 2 2 1032.7 1032.8 1.0
18/04:30am 4.2 2.5 4.2 100 0.0 SSW 2 4 1 2 1032.5 1032.6 1.0
18/04:00am 4.9 3.0 4.9 100 0.0 SSW 4 7 2 4 1032.5 1032.6 1.0
18/03:30am 3.5 1.7 3.5 100 0.0 SSW 2 4 1 2 1032.6 1032.7 1.0
18/03:00am 2.1 0.1 2.1 100 0.0 SSW 2 6 1 3 1032.9 1033.0 1.0
18/02:30am 4.8 2.3 4.8 100 0.0 SSW 7 9 4 5 1033.0 1033.1 1.0
18/02:00am 3.3 1.9 3.3 100 0.0 CALM 0 0 0 0 1032.8 1032.9 1.0
18/01:30am 3.8 2.4 3.8 100 0.0 CALM 0 2 0 1 1032.8 1032.9 1.0
18/01:00am 3.4 2.0 3.4 100 0.0 CALM 0 0 0 0 1032.7 1032.8 1.0
18/12:30am 5.3 3.1 5.3 100 0.0 S 6 6 3 3 1032.8 1032.9 1.0
18/12:00am 5.4 3.0 5.4 100 0.0 S 7 9 4 5 1032.8 1032.9 1.0
 
Date/Time
EST
Temp
°C
App
Temp
°C
Dew
Point
°C
Rel
Hum
%
Delta-T
°C
Wind Press
QNH
hPa
Press
MSL
hPa
Rain since
9am
mm
Dir  Spd
km/h
Gust
km/h
Spd
kts
Gust
kts
17/11:30pm 5.8 2.8 5.8 100 0.0 S 11 13 6 7 1032.7 1032.8 1.0
17/11:00pm 7.4 4.3 7.4 100 0.0 S 13 15 7 8 1032.6 1032.7 1.0
17/10:30pm 8.4 6.3 8.4 100 0.0 SSW 9 11 5 6 1032.5 1032.6 1.0
17/10:00pm 8.5 6.5 8.5 100 0.0 S 9 11 5 6 1032.3 1032.4 1.0
17/09:30pm 8.8 6.8 8.8 100 0.0 S 9 13 5 7 1032.1 1032.2 1.0
17/09:00pm 8.4 5.9 8.4 100 0.0 SSW 11 11 6 6 1032.0 1032.1 1.0
17/08:30pm 7.6 5.0 7.6 100 0.0 S 11 13 6 7 1031.7 1031.8 1.0
17/08:00pm 8.5 6.7 7.0 90 0.7 SW 6 9 3 5 1031.4 1031.5 1.0
17/07:30pm 9.2 7.2 7.2 87 0.9 SSW 7 9 4 5 1031.2 1031.3 1.0
17/07:00pm 9.1 7.3 7.2 88 0.9 SW 6 9 3 5 1030.7 1030.8 1.0
17/06:30pm 8.6 6.0 5.9 83 1.2 SW 9 9 5 5 1030.5 1030.6 1.0
17/06:00pm 8.8 6.1 5.7 81 1.4 SSW 9 11 5 6 1030.2 1030.3 1.0
17/05:30pm 10.7 6.9 5.9 72 2.2 SSW 15 20 8 11 1030.0 1030.1 1.0
17/05:00pm 11.3 7.5 5.8 69 2.6 SSW 15 20 8 11 1029.6 1029.8 1.0

Other formats

Comma delimited format used in spreadsheet applications
http://www.bom.gov.au/fwo/IDV60801/IDV60801.94840.axf

JavaScript Object Notation format (JSON) in row-major order
http://www.bom.gov.au/fwo/IDV60801/IDV60801.94840.json

Data quality

Most of these data are generated automatically and are frequently updated. Quality checks on data are not normally performed. It is possible for incorrect values to appear. Refer to information at About Latest Weather Observations and please check the disclaimer before using these data.